Time;durP1;ratioP1;P1;durP2;ratioP2;P2;SDS_P1;SDS_P2;PMS_P1;PMS_P2;Temp;Humidity;BMP_temperature;BMP_pressure;BME280_temperature;BME280_humidity;BME280_pressure;Samples;Min_cycle;Max_cycle;Signal;HPM_P1;HPM_P2
2021/12/02 00:01:22;;;;;;;14.50;7.37;;;;;;;4.93;100.00;97443.59;4101701;29;20256;-76
2021/12/02 00:03:49;;;;;;;13.23;7.27;;;;;;;4.91;100.00;97437.69;4086591;29;20335;-79
2021/12/02 00:06:18;;;;;;;14.00;7.53;;;;;;;4.91;100.00;97437.69;4100459;29;21967;-76
2021/12/02 00:08:46;;;;;;;14.53;7.50;;;;;;;4.90;100.00;97446.59;4093863;29;22053;-74
2021/12/02 00:11:13;;;;;;;12.73;7.00;;;;;;;4.95;100.00;97438.16;4087543;29;20252;-76
2021/12/02 00:21:20;;;;;;;13.67;7.07;;;;;;;4.98;100.00;97425.41;4097375;29;22529;-77
2021/12/02 00:24:07;;;;;;;11.80;6.60;;;;;;;4.98;100.00;97432.50;4071903;29;21969;-76
2021/12/02 00:26:39;;;;;;;10.73;6.43;;;;;;;4.91;100.00;97426.34;4075656;29;20241;-78
2021/12/02 00:29:07;;;;;;;13.23;6.37;;;;;;;4.93;100.00;97419.88;4072185;29;20915;-79
2021/12/02 00:31:38;;;;;;;13.90;6.27;;;;;;;4.97;100.00;97399.25;4083416;29;20295;-77
2021/12/02 00:34:09;;;;;;;10.77;6.30;;;;;;;5.03;100.00;97409.03;4085787;29;20657;-79
2021/12/02 00:36:38;;;;;;;13.70;6.67;;;;;;;5.04;100.00;97400.97;4074708;29;20233;-81
2021/12/02 00:39:11;;;;;;;11.30;6.30;;;;;;;5.00;100.00;97402.31;4101111;29;21036;-78
2021/12/02 00:41:38;;;;;;;14.20;6.17;;;;;;;5.02;100.00;97416.13;4093875;29;22711;-75
2021/12/02 00:44:05;;;;;;;10.73;5.93;;;;;;;5.04;100.00;97400.97;4098276;29;21386;-74
2021/12/02 00:46:33;;;;;;;13.60;6.00;;;;;;;5.06;100.00;97412.13;4089203;29;20356;-75
2021/12/02 00:49:03;;;;;;;10.33;5.60;;;;;;;5.08;100.00;97401.41;4077833;29;20245;-77
2021/12/02 00:51:31;;;;;;;9.73;5.27;;;;;;;5.13;100.00;97398.19;4077213;29;20323;-77
2021/12/02 00:54:03;;;;;;;11.97;5.90;;;;;;;5.14;100.00;97403.31;4069913;29;20232;-76
2021/12/02 00:56:30;;;;;;;12.70;6.03;;;;;;;5.11;100.00;97405.50;4091156;29;20247;-78
2021/12/02 00:58:57;;;;;;;10.67;5.67;;;;;;;5.16;100.00;97397.84;4070801;29;20453;-76
2021/12/02 01:01:25;;;;;;;11.00;5.63;;;;;;;5.18;100.00;97403.75;4089388;29;20277;-75
2021/12/02 01:03:58;;;;;;;10.23;5.90;;;;;;;5.19;100.00;97393.00;4098602;29;27374;-76
2021/12/02 01:06:25;;;;;;;10.83;5.43;;;;;;;5.21;100.00;97396.28;4093205;29;20243;-75
2021/12/02 01:08:54;;;;;;;10.63;5.03;;;;;;;5.23;100.00;97394.28;4099578;29;20612;-77
2021/12/02 01:11:21;;;;;;;9.87;5.10;;;;;;;5.25;100.00;97400.19;4107419;29;22705;-76
2021/12/02 01:13:47;;;;;;;8.90;4.73;;;;;;;5.25;100.00;97397.56;4109676;29;21236;-77
2021/12/02 01:16:15;;;;;;;7.97;4.57;;;;;;;5.29;100.00;97411.16;4094531;29;20233;-76
2021/12/02 01:18:42;;;;;;;8.15;4.57;;;;;;;5.28;100.00;97407.72;4085859;29;20936;-80
2021/12/02 01:21:14;;;;;;;9.73;4.53;;;;;;;5.36;100.00;97398.91;4092896;29;20320;-78
2021/12/02 01:23:41;;;;;;;8.93;5.00;;;;;;;5.39;100.00;97410.88;4077424;29;20495;-78
2021/12/02 01:26:08;;;;;;;8.03;4.37;;;;;;;5.36;100.00;97405.97;4092710;29;20241;-77
2021/12/02 01:28:36;;;;;;;8.27;4.10;;;;;;;5.33;100.00;97407.16;4088011;29;20673;-78
2021/12/02 01:31:03;;;;;;;9.50;4.07;;;;;;;5.33;100.00;97411.63;4089097;29;20471;-79
2021/12/02 01:33:30;;;;;;;11.67;4.83;;;;;;;5.34;100.00;97405.34;4094462;29;20749;-79
2021/12/02 01:35:59;;;;;;;6.83;4.17;;;;;;;5.40;99.75;97394.84;4093714;29;21862;-77
2021/12/02 01:38:28;;;;;;;7.27;3.87;;;;;;;5.41;99.63;97395.69;4083149;29;20378;-78
2021/12/02 01:40:56;;;;;;;9.37;5.00;;;;;;;5.42;99.54;97398.13;4090439;29;20249;-78
2021/12/02 01:43:42;;;;;;;8.30;3.90;;;;;;;5.40;99.22;97397.50;4078238;29;20348;-79
2021/12/02 01:46:10;;;;;;;9.27;4.00;;;;;;;5.45;98.51;97392.47;4087422;29;20291;-77
2021/12/02 01:48:39;;;;;;;8.60;4.57;;;;;;;5.44;98.80;97390.03;4089003;29;20534;-79
2021/12/02 01:51:09;;;;;;;8.53;4.37;;;;;;;5.40;99.09;97388.78;4068617;29;20255;-80
2021/12/02 01:53:39;;;;;;;9.47;4.27;;;;;;;5.37;98.51;97395.25;4085074;29;20429;-78
2021/12/02 01:56:11;;;;;;;6.13;3.37;;;;;;;5.39;98.30;97397.72;4085886;29;20325;-78
2021/12/02 01:58:44;;;;;;;8.23;3.87;;;;;;;5.36;98.63;97391.00;4098856;29;20240;-78
2021/12/02 02:01:17;;;;;;;7.20;4.07;;;;;;;5.39;98.20;97390.59;4082142;29;20236;-78
2021/12/02 02:03:48;;;;;;;10.17;4.07;;;;;;;5.39;97.61;97387.97;4077169;29;20624;-78
2021/12/02 02:06:40;;;;;;;7.27;3.60;;;;;;;5.47;96.87;97385.19;4093054;29;20228;-78
2021/12/02 02:09:08;;;;;;;6.33;3.40;;;;;;;5.55;96.34;97392.19;4101028;29;20240;-81
2021/12/02 02:11:35;;;;;;;8.77;3.63;;;;;;;5.66;95.69;97382.94;4087188;29;20245;-79
2021/12/02 02:14:02;;;;;;;9.03;4.13;;;;;;;5.65;95.51;97394.50;4078850;29;20331;-78
2021/12/02 02:16:29;;;;;;;5.33;3.30;;;;;;;5.74;94.62;97388.09;4095840;29;20659;-81
2021/12/02 02:18:56;;;;;;;6.40;3.33;;;;;;;5.74;94.08;97385.47;4088425;29;22209;-79
2021/12/02 02:21:23;;;;;;;8.67;3.87;;;;;;;5.69;94.94;97388.66;4093002;29;21991;-78
2021/12/02 02:23:58;;;;;;;7.70;3.30;;;;;;;5.63;94.73;97399.16;4102883;29;20270;-79
2021/12/02 02:26:28;;;;;;;7.67;3.87;;;;;;;5.64;94.20;97406.06;4083491;29;20688;-80
2021/12/02 02:28:56;;;;;;;7.53;3.50;;;;;;;5.60;94.39;97396.91;4091725;29;20654;-78
2021/12/02 02:31:24;;;;;;;7.70;3.73;;;;;;;5.56;94.53;97400.91;4090733;29;20347;-78
2021/12/02 02:33:53;;;;;;;7.33;3.60;;;;;;;5.49;95.17;97406.94;4082115;29;20291;-78
2021/12/02 02:36:21;;;;;;;7.77;4.07;;;;;;;5.41;95.33;97395.69;4085512;29;20302;-78
2021/12/02 02:38:56;;;;;;;8.50;3.63;;;;;;;5.39;95.35;97387.97;4086994;29;20410;-78
2021/12/02 02:41:25;;;;;;;9.63;3.97;;;;;;;5.43;94.80;97380.47;4090901;29;20307;-79
2021/12/02 02:43:56;;;;;;;12.37;4.00;;;;;;;5.42;95.49;97390.22;4092747;29;20240;-77
2021/12/02 02:46:28;;;;;;;6.60;3.50;;;;;;;5.41;95.62;97393.88;4086556;29;20336;-78
2021/12/02 02:48:56;;;;;;;6.50;3.40;;;;;;;5.46;95.09;97382.75;4087589;29;23470;-79
2021/12/02 02:51:23;;;;;;;9.50;3.47;;;;;;;5.44;94.62;97385.56;4074945;29;20263;-79
2021/12/02 02:53:52;;;;;;;7.53;3.60;;;;;;;5.45;94.85;97386.38;4096793;29;22348;-78
2021/12/02 02:56:20;;;;;;;5.63;3.13;;;;;;;5.43;94.77;97383.13;4096841;29;20240;-78
2021/12/02 02:59:06;;;;;;;8.03;3.43;;;;;;;5.44;95.09;97390.84;4086102;29;21810;-82
2021/12/02 03:12:17;;;;;;;7.03;2.97;;;;;;;5.36;94.70;97361.16;4041256;29;21672;-81
2021/12/02 03:17:13;;;;;;;6.53;3.17;;;;;;;5.39;94.59;97366.88;4098614;29;20248;-81
2021/12/02 03:19:41;;;;;;;11.83;3.20;;;;;;;5.37;95.17;97374.16;4095806;29;20376;-78
2021/12/02 03:22:09;;;;;;;6.67;3.00;;;;;;;5.35;94.15;97355.06;4092176;29;20263;-79
2021/12/02 03:24:35;;;;;;;9.23;3.07;;;;;;;5.34;94.48;97361.34;4100095;29;20257;-80
2021/12/02 03:27:02;;;;;;;5.60;2.93;;;;;;;5.25;94.93;97362.47;4080667;29;20357;-80
2021/12/02 03:29:29;;;;;;;8.10;3.80;;;;;;;5.17;95.56;97363.38;4083335;29;20237;-81
2021/12/02 03:31:56;;;;;;;8.70;3.43;;;;;;;5.23;95.31;97354.75;4094484;29;21436;-78
2021/12/02 03:34:22;;;;;;;7.33;3.27;;;;;;;5.18;94.91;97351.03;4106091;29;21207;-80
2021/12/02 03:36:49;;;;;;;5.80;3.10;;;;;;;5.16;95.16;97360.94;4105144;29;21426;-80
2021/12/02 03:39:16;;;;;;;7.93;3.37;;;;;;;5.22;94.07;97354.91;4103074;29;22106;-79
2021/12/02 03:41:43;;;;;;;6.27;3.20;;;;;;;5.15;93.94;97348.75;4083669;29;20244;-78
2021/12/02 03:44:11;;;;;;;5.47;2.90;;;;;;;5.21;93.58;97363.84;4105805;29;20951;-79
2021/12/02 03:46:38;;;;;;;6.30;3.13;;;;;;;5.25;92.59;97350.09;4091328;29;22766;-76
2021/12/02 03:49:05;;;;;;;7.63;3.47;;;;;;;5.22;92.66;97349.66;4101809;29;22148;-78
2021/12/02 03:51:32;;;;;;;9.70;3.20;;;;;;;5.28;93.06;97354.19;4095972;29;20660;-79
2021/12/02 03:53:59;;;;;;;5.47;3.00;;;;;;;5.37;92.44;97357.53;4096088;29;76378;-77
2021/12/02 03:56:26;;;;;;;6.37;2.70;;;;;;;5.41;91.21;97353.50;4094339;29;20257;-77
2021/12/02 03:58:53;;;;;;;8.13;3.20;;;;;;;5.38;91.89;97353.88;4097838;29;21275;-79
2021/12/02 04:01:21;;;;;;;4.97;2.60;;;;;;;5.33;91.00;97353.63;4092696;29;20233;-81
2021/12/02 04:03:49;;;;;;;6.37;2.87;;;;;;;5.35;90.76;97360.34;4088690;29;20254;-79
2021/12/02 04:06:16;;;;;;;7.30;2.80;;;;;;;5.35;91.12;97357.69;4089685;29;20240;-77
2021/12/02 04:16:20;;;;;;;5.57;2.20;;;;;;;5.47;88.88;97360.66;4092100;29;22973;-78
2021/12/02 04:18:46;;;;;;;5.57;2.10;;;;;;;5.59;87.31;97374.16;4092157;29;20233;-79
2021/12/02 04:21:13;;;;;;;4.37;1.90;;;;;;;5.57;87.15;97374.34;4086379;29;20238;-78
2021/12/02 04:23:40;;;;;;;4.30;2.07;;;;;;;5.59;85.90;97364.41;4088769;29;20238;-81
2021/12/02 04:26:06;;;;;;;4.33;1.60;;;;;;;5.64;84.58;97366.47;4092593;29;20240;-79
2021/12/02 04:28:33;;;;;;;3.13;1.70;;;;;;;5.63;84.17;97363.03;4088969;29;21179;-78
2021/12/02 04:30:59;;;;;;;5.63;2.10;;;;;;;5.66;82.71;97356.56;4103219;29;20948;-79
2021/12/02 04:33:26;;;;;;;6.83;1.77;;;;;;;5.67;82.12;97374.03;4088041;29;20238;-79
2021/12/02 04:35:53;;;;;;;6.03;1.70;;;;;;;5.66;82.15;97375.03;4113373;29;23375;-79
2021/12/02 04:38:20;;;;;;;3.77;1.73;;;;;;;5.65;81.79;97384.78;4085988;29;21689;-79
2021/12/02 04:40:46;;;;;;;6.53;1.70;;;;;;;5.63;82.26;97380.69;4079777;29;20384;-78
2021/12/02 04:43:13;;;;;;;4.17;1.70;;;;;;;5.69;82.11;97390.50;4088132;29;21216;-78
2021/12/02 04:45:40;;;;;;;9.80;1.70;;;;;;;5.65;81.71;97391.88;4093986;29;21769;-79
2021/12/02 04:48:07;;;;;;;4.07;1.50;;;;;;;5.67;82.21;97405.69;4094659;29;20241;-79
2021/12/02 04:50:33;;;;;;;4.87;1.40;;;;;;;5.61;82.63;97407.25;4095047;29;21646;-79
2021/12/02 04:53:00;;;;;;;5.60;1.60;;;;;;;5.59;82.51;97408.44;4085833;29;20245;-78
2021/12/02 04:55:27;;;;;;;3.50;1.70;;;;;;;5.59;83.35;97406.63;4084054;29;20703;-80
2021/12/02 04:57:54;;;;;;;4.50;2.00;;;;;;;5.52;83.69;97407.56;4081244;29;20774;-79
2021/12/02 05:00:21;;;;;;;5.43;1.80;;;;;;;5.55;82.88;97405.38;4095589;29;20240;-79
2021/12/02 05:02:47;;;;;;;4.43;1.53;;;;;;;5.55;83.62;97409.81;4099457;29;20249;-80
2021/12/02 05:05:14;;;;;;;3.00;1.50;;;;;;;5.54;82.82;97406.38;4083159;29;20233;-79
2021/12/02 05:07:41;;;;;;;3.70;1.60;;;;;;;5.49;83.50;97399.00;4099259;29;20243;-79
2021/12/02 05:10:09;;;;;;;3.60;1.70;;;;;;;5.56;81.92;97409.63;4095443;29;20277;-77
2021/12/02 05:12:36;;;;;;;4.10;1.53;;;;;;;5.52;82.44;97426.03;4095421;29;20265;-78
2021/12/02 05:15:03;;;;;;;3.03;1.40;;;;;;;5.47;81.90;97416.03;4068382;29;20237;-77
2021/12/02 05:17:30;;;;;;;4.77;1.50;;;;;;;5.46;82.50;97415.22;4101417;29;20240;-77
2021/12/02 05:19:56;;;;;;;3.17;1.90;;;;;;;5.44;82.43;97413.78;4094613;29;20732;-78
2021/12/02 05:22:23;;;;;;;4.20;1.37;;;;;;;5.50;81.85;97420.91;4090573;29;20233;-78
2021/12/02 05:24:49;;;;;;;2.00;1.17;;;;;;;5.50;81.59;97437.59;4099471;29;20268;-78
2021/12/02 05:27:16;;;;;;;3.77;1.47;;;;;;;5.53;81.97;97446.13;4081991;29;20266;-78
2021/12/02 05:29:43;;;;;;;4.47;1.30;;;;;;;5.53;81.51;97446.13;4087187;29;20945;-79
2021/12/02 05:32:10;;;;;;;3.13;1.30;;;;;;;5.50;81.36;97455.22;4095222;29;20230;-77
2021/12/02 05:34:37;;;;;;;3.27;1.17;;;;;;;5.49;81.19;97466.78;4092013;29;21236;-79
2021/12/02 05:37:04;;;;;;;3.63;1.00;;;;;;;5.48;82.00;97467.78;4080223;29;20246;-78
2021/12/02 05:39:30;;;;;;;6.00;1.40;;;;;;;5.47;82.44;97477.50;4098156;29;20237;-80
2021/12/02 05:41:57;;;;;;;2.43;1.13;;;;;;;5.42;81.17;97473.78;4104306;29;22721;-79
2021/12/02 05:44:24;;;;;;;3.30;1.47;;;;;;;5.39;80.85;97490.00;4084103;29;20239;-77
2021/12/02 05:46:51;;;;;;;4.20;0.90;;;;;;;5.31;78.43;97498.00;4088020;29;22867;-79
2021/12/02 05:49:18;;;;;;;2.73;1.10;;;;;;;5.24;75.71;97505.81;4098853;29;20237;-80
2021/12/02 05:51:45;;;;;;;4.77;0.90;;;;;;;5.24;74.94;97505.81;4079185;29;20269;-78
2021/12/02 05:54:12;;;;;;;2.57;0.90;;;;;;;5.16;74.21;97513.84;4090129;29;20683;-78
2021/12/02 05:56:39;;;;;;;1.27;0.80;;;;;;;5.11;73.52;97518.84;4078775;29;21475;-79
2021/12/02 05:59:06;;;;;;;1.43;0.60;;;;;;;5.05;72.50;97508.00;4089075;29;22239;-79
2021/12/02 06:01:33;;;;;;;3.43;0.80;;;;;;;5.03;70.68;97514.44;4090724;29;21609;-78
2021/12/02 06:04:01;;;;;;;3.60;0.77;;;;;;;4.99;69.98;97523.75;4085675;29;20344;-79
2021/12/02 06:06:28;;;;;;;2.60;0.60;;;;;;;4.88;70.26;97519.72;4094421;29;20578;-76
2021/12/02 06:08:54;;;;;;;3.87;0.90;;;;;;;4.79;70.79;97515.53;4092796;29;20348;-76
2021/12/02 06:11:21;;;;;;;6.37;1.00;;;;;;;4.69;70.12;97530.78;4083149;29;20411;-75
2021/12/02 06:13:47;;;;;;;4.50;0.97;;;;;;;4.62;70.51;97513.06;4084441;29;20245;-78
2021/12/02 06:16:15;;;;;;;1.47;0.80;;;;;;;4.61;70.80;97521.97;4092555;29;20318;-76
2021/12/02 06:18:43;;;;;;;5.10;0.80;;;;;;;4.58;69.71;97522.31;4088077;29;22387;-78
2021/12/02 06:21:10;;;;;;;5.87;1.10;;;;;;;4.58;68.55;97532.84;4089634;29;20357;-77
2021/12/02 06:23:39;;;;;;;3.07;0.70;;;;;;;4.60;68.37;97541.41;4090571;29;20287;-77
2021/12/02 06:26:07;;;;;;;4.80;1.10;;;;;;;4.60;69.17;97525.59;4079571;29;22295;-76
2021/12/02 06:28:33;;;;;;;3.67;0.90;;;;;;;4.62;68.77;97525.44;4075748;29;21984;-76
2021/12/02 06:31:06;;;;;;;3.73;0.90;;;;;;;4.61;68.92;97548.31;4088505;29;22067;-78
2021/12/02 06:33:33;;;;;;;3.90;0.90;;;;;;;4.57;69.57;97541.75;4087861;29;25101;-76
2021/12/02 06:36:00;;;;;;;5.90;1.20;;;;;;;4.54;69.30;97543.91;4096535;29;20244;-76
2021/12/02 06:38:26;;;;;;;3.97;1.07;;;;;;;4.53;69.91;97540.47;4080880;29;20860;-77
2021/12/02 06:40:53;;;;;;;7.53;2.20;;;;;;;4.46;71.25;97546.63;4093125;29;20241;-75
2021/12/02 06:43:20;;;;;;;6.20;1.60;;;;;;;4.40;71.97;97556.88;4076832;29;20883;-73
2021/12/02 06:45:47;;;;;;;7.83;1.93;;;;;;;4.37;72.33;97556.41;4087137;29;20271;-73
2021/12/02 06:48:14;;;;;;;6.53;1.47;;;;;;;4.30;72.41;97555.47;4086969;29;20245;-75
2021/12/02 06:50:42;;;;;;;5.30;1.67;;;;;;;4.25;74.08;97557.81;4089820;29;22556;-74
2021/12/02 06:53:09;;;;;;;3.03;1.30;;;;;;;4.26;74.21;97543.66;4084629;29;21392;-73
2021/12/02 06:55:35;;;;;;;5.30;1.30;;;;;;;4.27;74.71;97553.19;4090516;29;21418;-74
2021/12/02 06:58:02;;;;;;;3.93;1.20;;;;;;;4.31;74.75;97562.38;4084718;29;20235;-75
2021/12/02 07:00:29;;;;;;;5.73;1.00;;;;;;;4.30;75.91;97560.75;4089609;29;20943;-74
2021/12/02 07:02:56;;;;;;;5.80;1.17;;;;;;;4.31;76.12;97563.19;4093161;29;20294;-76
2021/12/02 07:05:23;;;;;;;5.53;1.43;;;;;;;4.34;76.19;97572.56;4079633;29;20309;-74
2021/12/02 07:07:50;;;;;;;5.33;1.30;;;;;;;4.37;76.88;97572.19;4077658;29;20993;-74
2021/12/02 07:10:23;;;;;;;5.03;1.67;;;;;;;4.44;76.96;97586.28;4071747;29;20473;-74
2021/12/02 07:12:54;;;;;;;3.20;1.40;;;;;;;4.59;76.66;97587.16;4092063;29;23057;-75
2021/12/02 07:18:21;;;;;;;5.57;1.80;;;;;;;4.62;76.47;97586.00;4085631;29;22984;-73
2021/12/02 07:20:49;;;;;;;5.97;1.97;;;;;;;4.66;75.94;97582.03;4061359;29;20240;-75
2021/12/02 07:23:18;;;;;;;4.50;1.60;;;;;;;4.69;74.57;97578.22;4068591;29;20240;-77
2021/12/02 07:25:46;;;;;;;5.10;1.60;;;;;;;4.65;73.78;97583.00;4064117;29;20943;-73
2021/12/02 07:28:15;;;;;;;3.33;1.30;;;;;;;4.65;72.17;97591.72;4093400;29;20645;-74
2021/12/02 07:30:41;;;;;;;4.90;1.40;;;;;;;4.60;72.58;97596.69;4068721;29;20236;-74
2021/12/02 07:33:10;;;;;;;5.20;1.50;;;;;;;4.56;72.37;97592.78;4102785;29;20233;-76
2021/12/02 07:35:37;;;;;;;7.13;1.40;;;;;;;4.51;71.43;97589.84;4086912;29;20250;-74
2021/12/02 07:38:04;;;;;;;3.97;1.20;;;;;;;4.42;71.22;97594.38;4094972;29;20241;-77
2021/12/02 07:40:36;;;;;;;5.70;1.40;;;;;;;4.49;70.36;97597.09;4083650;29;20414;-74
2021/12/02 07:43:06;;;;;;;3.80;1.37;;;;;;;4.41;70.82;97589.28;4090203;29;20337;-76
2021/12/02 07:45:36;;;;;;;6.83;1.53;;;;;;;4.48;70.28;97592.84;4077539;29;20240;-74
2021/12/02 07:48:04;;;;;;;4.80;1.30;;;;;;;4.50;68.92;97593.50;4091716;29;20299;-73
2021/12/02 07:50:31;;;;;;;4.17;1.23;;;;;;;4.48;68.24;97600.75;4075912;29;20249;-74
2021/12/02 07:53:01;;;;;;;10.67;1.30;;;;;;;4.50;68.46;97604.03;4087291;29;23632;-73
2021/12/02 07:55:30;;;;;;;5.60;1.27;;;;;;;4.58;67.51;97603.94;4077954;29;20734;-75
2021/12/02 07:57:57;;;;;;;6.17;1.40;;;;;;;4.56;68.16;97619.09;4073480;29;20255;-75
2021/12/02 08:00:26;;;;;;;10.03;1.50;;;;;;;4.59;68.34;97618.78;4081398;29;20234;-74
2021/12/02 08:02:54;;;;;;;3.40;1.23;;;;;;;4.61;67.46;97627.31;4080382;29;20641;-74
2021/12/02 08:05:22;;;;;;;5.83;1.47;;;;;;;4.59;68.42;97624.03;4103903;29;20805;-76
2021/12/02 08:07:50;;;;;;;5.00;1.03;;;;;;;4.65;67.40;97611.97;4071523;29;20279;-73
2021/12/02 08:10:17;;;;;;;5.80;1.33;;;;;;;4.62;67.45;97613.16;4081462;29;20245;-76
2021/12/02 08:12:47;;;;;;;4.93;1.17;;;;;;;4.62;66.99;97623.69;4083255;29;20252;-73
2021/12/02 08:15:17;;;;;;;4.23;1.00;;;;;;;4.58;68.39;97622.38;4091970;29;20408;-76
2021/12/02 08:17:44;;;;;;;5.00;1.03;;;;;;;4.60;68.44;97620.41;4092060;29;20664;-76
2021/12/02 08:20:15;;;;;;;3.07;1.00;;;;;;;4.64;67.57;97632.22;4083304;29;20623;-77
2021/12/02 08:22:42;;;;;;;5.10;1.30;;;;;;;4.75;68.26;97646.81;4093627;29;20297;-74
2021/12/02 08:25:11;;;;;;;9.27;1.40;;;;;;;5.18;66.93;97633.09;4095535;29;22044;-77
2021/12/02 08:27:38;;;;;;;4.40;0.90;;;;;;;6.67;61.25;97649.56;4091769;29;20241;-74
2021/12/02 08:30:06;;;;;;;4.97;1.10;;;;;;;8.27;56.00;97656.72;4118000;29;20238;-76
2021/12/02 08:32:36;;;;;;;2.37;0.90;;;;;;;9.00;52.70;97666.69;4191160;29;20777;-78
2021/12/02 08:35:04;;;;;;;5.13;1.10;;;;;;;9.57;49.78;97675.00;4285497;29;20239;-77
2021/12/02 08:37:32;;;;;;;2.63;1.00;;;;;;;9.23;49.30;97672.41;4141642;29;20599;-73
2021/12/02 08:40:00;;;;;;;5.73;1.30;;;;;;;9.77;48.93;97680.31;4115987;29;20663;-75
2021/12/02 08:42:27;;;;;;;5.33;1.27;;;;;;;10.33;46.31;97690.38;4132109;29;20336;-76
2021/12/02 08:44:54;;;;;;;2.23;0.87;;;;;;;10.59;45.75;97688.63;4160699;29;21656;-74
2021/12/02 08:47:22;;;;;;;5.13;1.30;;;;;;;10.75;44.13;97699.56;4111322;29;21484;-75
2021/12/02 08:49:54;;;;;;;4.60;1.37;;;;;;;10.78;44.03;97679.69;4117050;29;20303;-76
2021/12/02 08:52:26;;;;;;;9.73;1.50;;;;;;;9.83;45.62;97696.22;4115150;29;21799;-75
2021/12/02 08:54:54;;;;;;;3.33;0.87;;;;;;;10.05;45.29;97699.44;4113450;29;25835;-73
2021/12/02 08:57:41;;;;;;;6.13;1.40;;;;;;;9.55;47.01;97691.13;4116306;29;20660;-73
2021/12/02 09:00:10;;;;;;;4.70;1.20;;;;;;;9.46;46.27;97687.91;4100827;29;21036;-75
2021/12/02 09:02:37;;;;;;;1.63;0.80;;;;;;;9.99;44.74;97688.81;4098974;29;22142;-74
2021/12/02 09:05:04;;;;;;;7.93;1.43;;;;;;;10.11;45.73;97672.03;4124980;29;20705;-74
2021/12/02 09:07:32;;;;;;;3.13;0.80;;;;;;;9.69;44.44;97681.31;4097852;29;20263;-77
2021/12/02 09:09:58;;;;;;;1.43;0.80;;;;;;;9.52;45.42;97667.66;4124180;29;20244;-73
2021/12/02 09:12:25;;;;;;;4.43;0.97;;;;;;;9.61;44.51;97685.00;4104478;29;20294;-74
2021/12/02 09:14:52;;;;;;;2.43;0.80;;;;;;;9.27;45.16;97692.19;4113352;29;20244;-76
2021/12/02 09:17:19;;;;;;;1.50;0.70;;;;;;;9.20;44.59;97704.66;4058479;29;20239;-75
2021/12/02 09:19:46;;;;;;;4.73;0.97;;;;;;;8.51;44.84;97726.13;4104170;29;20420;-74
2021/12/02 09:22:12;;;;;;;2.40;0.87;;;;;;;8.58;45.57;97700.47;4081406;29;20254;-73
2021/12/02 09:24:39;;;;;;;3.50;0.80;;;;;;;8.71;45.92;97715.56;4100537;29;20957;-76
2021/12/02 09:27:06;;;;;;;6.00;1.00;;;;;;;8.57;46.11;97691.69;4147821;29;21218;-73
2021/12/02 09:29:35;;;;;;;3.60;1.20;;;;;;;8.11;47.72;97694.94;4132244;29;20243;-73
2021/12/02 09:32:02;;;;;;;6.30;1.27;;;;;;;7.15;49.00;97692.91;4133279;29;23864;-73
2021/12/02 09:34:29;;;;;;;3.33;0.67;;;;;;;6.73;50.84;97683.16;4086494;29;21144;-72
2021/12/02 09:37:00;;;;;;;2.83;0.70;;;;;;;6.64;50.06;97668.44;4147054;29;20245;-74
2021/12/02 09:39:31;;;;;;;7.33;0.90;;;;;;;6.47;50.98;97700.38;4112348;29;20256;-74
2021/12/02 09:41:58;;;;;;;1.80;0.73;;;;;;;6.05;50.56;97690.53;4136658;29;20233;-76
2021/12/02 09:44:28;;;;;;;3.33;0.80;;;;;;;6.06;51.51;97687.72;4101034;29;20458;-77
2021/12/02 09:46:55;;;;;;;2.63;0.90;;;;;;;6.10;52.32;97686.31;4095631;29;20226;-75
2021/12/02 09:49:23;;;;;;;3.23;1.40;;;;;;;5.94;51.50;97689.16;4106310;29;20350;-75
2021/12/02 09:54:30;;;;;;;4.17;1.00;;;;;;;6.17;52.90;97690.88;4136758;29;25812;-74
2021/12/02 09:57:00;;;;;;;4.87;1.20;;;;;;;6.36;54.18;97689.47;4102831;29;20259;-75
2021/12/02 10:00:16;;;;;;;4.07;1.30;;;;;;;6.09;54.96;97697.91;4095201;29;20245;-80
2021/12/02 10:02:20;;;;;;;2.67;1.27;;;;;;;6.41;56.84;97682.63;4088898;29;25987;-83
2021/12/02 10:07:21;;;;;;;4.57;1.20;;;;;;;6.30;55.92;97696.31;4088904;29;20233;-75
2021/12/02 10:10:01;;;;;;;5.63;1.27;;;;;;;6.20;54.73;97691.31;4093093;29;20316;-79
2021/12/02 10:12:29;;;;;;;2.90;1.27;;;;;;;5.99;57.20;97694.72;4086446;29;20353;-76
2021/12/02 10:15:00;;;;;;;5.80;1.20;;;;;;;5.86;58.19;97673.41;4091401;29;20615;-75
2021/12/02 10:17:35;;;;;;;3.97;0.90;;;;;;;5.75;57.18;97698.41;4084456;29;20244;-74
2021/12/02 10:20:30;;;;;;;11.27;1.17;;;;;;;6.07;58.73;97701.72;4105181;29;21079;-76
2021/12/02 10:23:03;;;;;;;4.13;1.17;;;;;;;6.07;59.46;97693.81;4069987;29;20230;-76
2021/12/02 10:25:32;;;;;;;3.23;1.20;;;;;;;6.06;57.53;97700.06;4103036;29;20953;-73
2021/12/02 10:28:10;;;;;;;4.90;1.10;;;;;;;6.06;57.49;97687.72;4146708;29;21439;-77
2021/12/02 10:30:48;;;;;;;4.80;1.47;;;;;;;6.11;58.34;97682.69;4099497;29;20312;-76
2021/12/02 10:33:31;;;;;;;6.37;1.30;;;;;;;6.31;58.29;97704.03;4109983;29;21075;-75
2021/12/02 10:35:59;;;;;;;5.10;1.40;;;;;;;6.44;58.28;97713.97;4074377;29;22733;-75
2021/12/02 10:38:39;;;;;;;2.50;0.97;;;;;;;6.26;57.27;97716.19;4079286;29;20239;-77
2021/12/02 10:41:10;;;;;;;5.37;1.13;;;;;;;6.10;57.09;97682.88;4097942;29;20656;-75
2021/12/02 10:44:00;;;;;;;8.30;1.30;;;;;;;5.91;58.92;97724.63;4067596;29;20244;-75
2021/12/02 10:46:27;;;;;;;4.50;1.47;;;;;;;5.95;60.23;97711.09;4090719;29;20244;-74
2021/12/02 10:48:55;;;;;;;4.93;1.60;;;;;;;6.08;59.89;97709.44;4109122;29;20262;-74
2021/12/02 10:51:50;;;;;;;5.87;1.50;;;;;;;6.06;60.32;97708.00;4093497;29;20400;-74
2021/12/02 10:54:21;;;;;;;2.20;1.07;;;;;;;5.82;59.02;97712.53;4112548;29;21640;-75
2021/12/02 10:56:50;;;;;;;4.40;1.23;;;;;;;5.76;59.40;97707.16;4103069;29;20238;-75
2021/12/02 10:59:31;;;;;;;2.63;1.00;;;;;;;5.79;60.12;97697.06;4089710;29;20298;-75
2021/12/02 11:02:07;;;;;;;1.60;0.73;;;;;;;5.80;59.46;97711.88;4087697;29;20305;-76
2021/12/02 11:04:40;;;;;;;3.00;1.00;;;;;;;5.71;58.84;97681.31;4083952;29;20256;-74
2021/12/02 11:07:11;;;;;;;2.17;0.70;;;;;;;5.50;59.33;97711.88;4087900;29;20359;-75
2021/12/02 11:09:39;;;;;;;10.23;1.40;;;;;;;5.41;59.78;97728.78;4097543;29;20357;-74
2021/12/02 11:12:09;;;;;;;2.70;1.10;;;;;;;5.43;59.37;97726.78;4086690;29;20243;-73
2021/12/02 11:14:40;;;;;;;3.53;0.90;;;;;;;5.31;56.83;97712.38;4088637;29;20245;-76
2021/12/02 11:17:12;;;;;;;3.63;1.10;;;;;;;5.02;55.51;97719.22;4093445;29;22122;-75
2021/12/02 11:19:43;;;;;;;6.67;1.27;;;;;;;4.91;58.27;97724.88;4076620;29;22565;-75
2021/12/02 11:22:14;;;;;;;3.80;1.33;;;;;;;4.88;59.14;97722.59;4083846;29;20753;-76
2021/12/02 11:24:42;;;;;;;5.27;1.30;;;;;;;4.70;58.76;97735.25;4076858;29;21662;-76
2021/12/02 11:27:21;;;;;;;4.93;1.20;;;;;;;4.60;59.15;97720.47;4085722;29;20450;-76
2021/12/02 11:29:51;;;;;;;5.57;1.07;;;;;;;4.61;60.21;97711.59;4099434;29;21279;-76
2021/12/02 11:32:26;;;;;;;5.67;1.30;;;;;;;4.61;60.98;97727.41;4082030;29;20241;-73
2021/12/02 11:35:05;;;;;;;4.43;1.30;;;;;;;4.62;61.25;97729.03;4083030;29;20255;-75
2021/12/02 11:37:34;;;;;;;4.13;1.20;;;;;;;4.52;61.85;97723.19;4057153;29;21362;-76
2021/12/02 11:40:14;;;;;;;2.87;1.10;;;;;;;4.48;61.73;97719.25;4082399;29;20230;-78
2021/12/02 11:42:42;;;;;;;3.83;1.20;;;;;;;4.51;61.56;97737.31;4076982;29;22283;-74
2021/12/02 11:45:14;;;;;;;4.27;1.03;;;;;;;4.58;61.88;97738.25;4094930;29;20998;-78
2021/12/02 11:47:41;;;;;;;5.63;1.47;;;;;;;4.52;61.77;97738.97;4092085;29;20237;-75
2021/12/02 11:50:09;;;;;;;3.17;1.07;;;;;;;4.48;59.60;97740.31;4084932;29;20643;-77
2021/12/02 11:52:38;;;;;;;2.00;0.97;;;;;;;4.43;59.12;97764.53;4095145;29;20299;-74
2021/12/02 11:55:09;;;;;;;4.63;0.87;;;;;;;4.48;59.35;97763.19;4087389;29;20255;-79
2021/12/02 11:57:37;;;;;;;3.10;1.00;;;;;;;4.54;59.65;97768.59;4125600;29;20802;-76
2021/12/02 12:00:07;;;;;;;7.17;1.30;;;;;;;4.54;60.12;97768.59;4092433;29;22650;-76
2021/12/02 12:02:33;;;;;;;3.77;1.10;;;;;;;4.51;60.35;97766.28;4072178;29;20241;-74
2021/12/02 12:05:03;;;;;;;4.77;1.17;;;;;;;4.54;59.69;97773.88;4103017;29;20721;-77
2021/12/02 12:07:46;;;;;;;3.17;1.10;;;;;;;4.55;58.72;97767.59;4085485;29;20232;-79
2021/12/02 12:10:22;;;;;;;2.77;0.90;;;;;;;4.60;60.09;97769.72;4094934;29;20263;-79
2021/12/02 12:12:50;;;;;;;5.07;1.40;;;;;;;4.63;59.93;97766.72;4106376;29;20884;-80
2021/12/02 12:15:33;;;;;;;5.27;2.10;;;;;;;4.66;60.58;97766.41;4116049;29;21545;-79
2021/12/02 12:18:01;;;;;;;5.13;1.53;;;;;;;4.65;61.73;97776.09;4110848;29;20230;-83
2021/12/02 12:20:50;;;;;;;5.87;1.60;;;;;;;4.69;59.13;97779.22;4103635;29;20236;-75
2021/12/02 12:23:45;;;;;;;4.13;1.17;;;;;;;4.69;58.34;97770.50;4093122;29;20245;-77
2021/12/02 12:26:31;;;;;;;6.33;1.70;;;;;;;4.65;58.92;97784.00;4066372;29;20294;-76